Time;durP1;ratioP1;P1;durP2;ratioP2;P2;SDS_P1;SDS_P2;PMS_P1;PMS_P2;Temp;Humidity;BMP_temperature;BMP_pressure;BME280_temperature;BME280_humidity;BME280_pressure;Samples;Min_cycle;Max_cycle;Signal;HPM_P1;HPM_P2
2023/05/10 00:01:16;;;;;;;17.88;14.13;;;;;;;;;;6244686;23;20377;-79
2023/05/10 00:03:42;;;;;;;16.55;13.35;;;;;;;;;;6249585;23;20373;-78
2023/05/10 00:06:08;;;;;;;15.35;12.32;;;;;;;;;;6250615;23;20482;-79
2023/05/10 00:08:34;;;;;;;16.35;12.50;;;;;;;;;;6224203;23;20385;-76
2023/05/10 00:11:00;;;;;;;15.00;12.75;;;;;;;;;;6220807;23;20366;-78
2023/05/10 00:13:26;;;;;;;17.15;13.43;;;;;;;;;;6222352;23;20366;-79
2023/05/10 00:15:52;;;;;;;16.13;12.50;;;;;;;;;;6223340;23;20378;-79
2023/05/10 00:18:19;;;;;;;15.93;12.65;;;;;;;;;;6198960;23;20366;-79
2023/05/10 00:20:45;;;;;;;14.80;11.82;;;;;;;;;;6249474;23;20834;-79
2023/05/10 00:23:12;;;;;;;15.60;12.05;;;;;;;;;;6219247;23;20840;-78
2023/05/10 00:25:38;;;;;;;14.38;11.75;;;;;;;;;;6242804;23;20389;-78
2023/05/10 00:28:04;;;;;;;13.85;11.23;;;;;;;;;;6195438;23;20362;-78
2023/05/10 00:30:30;;;;;;;15.07;10.47;;;;;;;;;;6220179;23;20362;-78
2023/05/10 00:32:56;;;;;;;13.90;10.70;;;;;;;;;;6218576;23;20373;-78
2023/05/10 00:35:23;;;;;;;12.52;9.98;;;;;;;;;;6244408;23;20441;-78
2023/05/10 00:37:49;;;;;;;14.63;10.50;;;;;;;;;;6218597;23;20366;-78
2023/05/10 00:40:15;;;;;;;14.30;11.35;;;;;;;;;;6243787;23;20396;-79
2023/05/10 00:42:41;;;;;;;16.58;12.38;;;;;;;;;;6243391;23;20661;-79
2023/05/10 00:45:07;;;;;;;17.73;12.85;;;;;;;;;;6216156;23;20397;-78
2023/05/10 00:47:34;;;;;;;19.63;13.13;;;12.70;99.90;;;;;;6217410;23;20361;-78
2023/05/10 00:50:00;;;;;;;20.63;13.65;;;;;;;;;;6243709;23;20369;-78
2023/05/10 00:52:27;;;;;;;19.35;14.02;;;;;;;;;;6242179;23;20416;-78
2023/05/10 00:54:53;;;;;;;21.10;14.85;;;;;;;;;;6217529;23;20366;-78
2023/05/10 00:57:19;;;;;;;21.23;14.93;;;;;;;;;;6218080;23;20653;-78
2023/05/10 00:59:45;;;;;;;20.73;14.45;;;12.70;99.90;;;;;;6243928;23;20691;-79
2023/05/10 01:02:13;;;;;;;21.08;15.57;;;;;;;;;;6216960;23;20394;-78
2023/05/10 01:04:39;;;;;;;21.87;15.37;;;;;;;;;;6241683;23;20369;-78
2023/05/10 01:07:05;;;;;;;21.95;15.70;;;;;;;;;;6192778;23;20386;-78
2023/05/10 01:09:31;;;;;;;20.60;15.10;;;;;;;;;;6242910;23;20381;-78
2023/05/10 01:11:57;;;;;;;20.15;14.43;;;;;;;;;;6242996;23;20404;-79
2023/05/10 01:14:23;;;;;;;17.65;13.55;;;;;;;;;;6217732;23;20366;-79
2023/05/10 01:16:50;;;;;;;17.65;13.57;;;;;;;;;;6242853;23;20742;-78
2023/05/10 01:19:23;;;;;;;16.55;12.93;;;12.90;99.90;;;;;;6243018;23;20370;-78
2023/05/10 01:22:11;;;;;;;16.80;13.18;;;12.80;99.90;;;;;;6241191;23;20361;-78
2023/05/10 01:24:56;;;;;;;17.45;12.88;;;;;;;;;;6241591;23;20408;-78
2023/05/10 01:27:25;;;;;;;16.35;12.82;;;;;;;;;;6242429;23;20427;-79
2023/05/10 01:29:54;;;;;;;17.75;13.40;;;;;;;;;;6243098;23;20370;-79
2023/05/10 01:32:34;;;;;;;16.92;13.70;;;12.80;99.90;;;;;;6243305;23;20425;-79
2023/05/10 01:35:10;;;;;;;17.03;13.23;;;12.60;99.90;;;;;;6217235;23;20713;-79
2023/05/10 01:37:45;;;;;;;18.05;13.80;;;;;;;;;;6241039;23;20420;-79
2023/05/10 01:40:12;;;;;;;17.23;13.55;;;;;;;;;;6243075;23;20362;-78
2023/05/10 01:42:47;;;;;;;20.52;14.60;;;12.60;99.90;;;;;;6217237;23;20401;-78
2023/05/10 01:45:16;;;;;;;20.60;14.52;;;;;;;;;;6216743;23;20370;-78
2023/05/10 01:47:44;;;;;;;18.35;13.68;;;12.60;99.90;;;;;;6242561;23;20369;-79
2023/05/10 01:50:17;;;;;;;19.08;13.75;;;;;;;;;;6236798;23;20362;-78
2023/05/10 01:52:49;;;;;;;18.60;13.90;;;12.50;99.90;;;;;;6241316;23;20397;-79
2023/05/10 01:55:18;;;;;;;20.42;14.38;;;12.90;99.90;;;;;;6241157;23;20377;-76
2023/05/10 01:57:46;;;;;;;20.92;14.77;;;12.80;99.90;;;;;;6216638;23;20824;-78
2023/05/10 02:00:12;;;;;;;24.00;15.95;;;;;;;;;;6216754;23;20362;-78
2023/05/10 02:02:49;;;;;;;24.48;16.25;;;13.00;99.90;;;;;;6241649;23;20404;-78
2023/05/10 02:05:16;;;;;;;26.63;16.73;;;;;;;;;;6215579;23;20436;-78
2023/05/10 02:07:43;;;;;;;27.00;16.90;;;12.60;99.90;;;;;;6242347;23;20870;-78
2023/05/10 02:10:10;;;;;;;28.60;17.50;;;;;;;;;;6241892;23;20420;-78
2023/05/10 02:12:37;;;;;;;27.23;17.13;;;;;;;;;;6243212;23;20774;-78
2023/05/10 02:15:05;;;;;;;31.23;18.25;;;12.60;99.90;;;;;;6216575;23;20374;-78
2023/05/10 02:17:32;;;;;;;36.40;18.83;;;12.80;99.90;;;;;;6243138;23;20358;-78
2023/05/10 02:19:59;;;;;;;35.47;20.00;;;;;;;;;;6243326;23;20366;-79
2023/05/10 02:22:26;;;;;;;38.20;20.48;;;12.40;99.90;;;;;;6241848;23;20701;-78
2023/05/10 02:24:53;;;;;;;40.70;21.00;;;;;;;;;;6242216;23;20361;-78
2023/05/10 02:27:20;;;;;;;41.57;21.43;;;12.70;99.90;;;;;;6192923;23;20386;-78
2023/05/10 02:29:47;;;;;;;41.07;22.53;;;;;;;;;;6215503;23;20437;-78
2023/05/10 02:32:14;;;;;;;40.38;21.15;;;12.90;99.90;;;;;;6241743;23;20362;-79
2023/05/10 02:34:40;;;;;;;41.83;21.43;;;;;;;;;;6218389;23;20404;-78
2023/05/10 02:37:07;;;;;;;42.50;21.70;;;12.60;99.90;;;;;;6241310;23;20365;-79
2023/05/10 02:39:33;;;;;;;40.25;21.13;;;;;;;;;;6217967;23;20361;-80
2023/05/10 02:42:01;;;;;;;45.55;21.88;;;;;;;;;;6242313;23;20739;-80
2023/05/10 02:44:30;;;;;;;45.00;22.03;;;12.60;99.90;;;;;;6242962;23;20381;-80
2023/05/10 02:46:57;;;;;;;45.08;23.17;;;;;;;;;;6217409;23;20390;-80
2023/05/10 02:49:23;;;;;;;45.75;23.52;;;;;;;;;;6193285;23;20362;-78
2023/05/10 02:51:51;;;;;;;44.70;22.77;;;;;;;;;;6242298;23;20401;-79
2023/05/10 02:54:20;;;;;;;50.25;23.08;;;;;;;;;;6241157;23;20815;-80
2023/05/10 02:56:54;;;;;;;42.22;22.38;;;12.50;99.90;;;;;;6242941;23;20424;-79
2023/05/10 02:59:21;;;;;;;45.03;23.25;;;;;;;;;;6243110;23;20365;-79
2023/05/10 03:01:47;;;;;;;44.75;23.35;;;;;;;;;;6242532;23;20370;-78
2023/05/10 03:04:13;;;;;;;45.35;24.65;;;;;;;;;;6217477;23;20420;-80
2023/05/10 03:06:39;;;;;;;46.47;24.90;;;;;;;;;;6242291;23;20386;-79
2023/05/10 03:09:07;;;;;;;44.53;23.58;;;;;;;;;;6242796;23;20382;-79
2023/05/10 03:11:39;;;;;;;43.67;22.85;;;;;;;;;;6243547;23;20846;-80
2023/05/10 03:14:30;;;;;;;40.78;22.63;;;12.60;99.90;;;;;;6219634;23;20369;-79
2023/05/10 03:17:18;;;;;;;41.20;22.73;;;12.50;99.90;;;;;;6220201;23;20851;-79
2023/05/10 03:19:55;;;;;;;43.38;22.80;;;;;;;;;;6219686;23;20836;-78
2023/05/10 03:22:45;;;;;;;39.63;21.23;;;12.60;99.90;;;;;;6243560;23;20366;-78
2023/05/10 03:25:12;;;;;;;36.47;20.15;;;12.70;99.90;;;;;;6219753;23;20859;-79
2023/05/10 03:27:40;;;;;;;35.07;19.80;;;;;;;;;;6219694;23;20370;-79
2023/05/10 03:30:09;;;;;;;33.83;18.77;;;12.60;99.90;;;;;;6243227;23;20891;-80
2023/05/10 03:32:35;;;;;;;29.25;16.70;;;;;;;;;;6218006;23;20362;-77
2023/05/10 03:35:07;;;;;;;29.90;17.52;;;;;;;;;;6245842;23;20358;-79
2023/05/10 03:37:33;;;;;;;29.47;18.00;;;;;;;;;;6245558;22;20354;-80
2023/05/10 03:39:59;;;;;;;30.83;17.70;;;;;;;;;;6219662;23;20372;-78
2023/05/10 03:42:25;;;;;;;31.92;17.77;;;;;;;;;;6243808;23;21291;-78
2023/05/10 03:44:51;;;;;;;31.95;17.70;;;;;;;;;;6243377;23;20373;-77
2023/05/10 03:47:17;;;;;;;31.55;17.50;;;;;;;;;;6244620;23;20443;-78
2023/05/10 03:49:43;;;;;;;31.80;17.90;;;;;;;;;;6243850;23;20362;-77
2023/05/10 03:52:09;;;;;;;28.70;15.60;;;;;;;;;;6243968;23;20354;-78
2023/05/10 03:54:36;;;;;;;26.00;16.23;;;;;;;;;;6244087;23;20713;-78
2023/05/10 03:57:02;;;;;;;28.08;16.27;;;;;;;;;;6243782;23;20362;-77
2023/05/10 03:59:28;;;;;;;23.80;14.95;;;;;;;;;;6214080;23;20373;-78
2023/05/10 04:01:55;;;;;;;25.48;15.60;;;;;;;;;;6246128;23;20362;-78
2023/05/10 04:04:21;;;;;;;25.63;15.82;;;;;;;;;;6244475;23;20828;-78
2023/05/10 04:06:48;;;;;;;25.77;15.73;;;;;;;;;;6246895;22;20920;-78
2023/05/10 04:09:14;;;;;;;23.02;15.57;;;;;;;;;;6245064;23;20370;-78
2023/05/10 04:11:40;;;;;;;22.35;15.50;;;;;;;;;;6244936;23;20366;-78
2023/05/10 04:14:06;;;;;;;23.77;15.93;;;;;;;;;;6243849;23;20427;-78
2023/05/10 04:16:32;;;;;;;23.00;15.43;;;;;;;;;;6194146;23;20377;-78
2023/05/10 04:18:59;;;;;;;22.80;16.05;;;;;;;;;;6246500;23;20365;-79
2023/05/10 04:21:25;;;;;;;23.42;15.82;;;;;;;;;;6245032;22;20355;-78
2023/05/10 04:23:51;;;;;;;24.70;15.67;;;;;;;;;;6244024;23;20428;-78
2023/05/10 04:26:17;;;;;;;23.73;16.00;;;;;;;;;;6248624;23;20450;-79
2023/05/10 04:28:44;;;;;;;25.70;16.20;;;;;;;;;;6250273;23;20368;-78
2023/05/10 04:31:10;;;;;;;19.63;14.85;;;;;;;;;;6251593;23;20365;-79
2023/05/10 04:33:37;;;;;;;21.60;15.38;;;;;;;;;;6254412;23;20362;-79
2023/05/10 04:36:03;;;;;;;23.60;15.43;;;;;;;;;;6251605;23;20413;-79
2023/05/10 04:38:30;;;;;;;20.50;14.55;;;;;;;;;;6247633;23;20366;-79
2023/05/10 04:41:04;;;;;;;20.83;14.93;;;;;;;;;;6250657;23;20370;-77
2023/05/10 04:43:30;;;;;;;23.70;16.02;;;;;;;;;;6250155;23;20665;-77
2023/05/10 04:45:59;;;;;;;20.45;14.05;;;;;;;;;;6249812;23;20453;-78
2023/05/10 04:48:25;;;;;;;17.90;13.17;;;;;;;;;;6244037;23;20433;-78
2023/05/10 04:50:52;;;;;;;19.45;12.82;;;;;;;;;;6246013;23;20354;-78
2023/05/10 04:53:18;;;;;;;15.25;11.18;;;;;;;;;;6219150;23;20366;-76
2023/05/10 04:55:44;;;;;;;15.48;11.15;;;;;;;;;;6244808;23;20373;-78
2023/05/10 04:58:10;;;;;;;16.27;11.50;;;;;;;;;;6245837;23;20365;-78
2023/05/10 05:00:36;;;;;;;16.27;12.00;;;;;;;;;;6217833;23;20368;-77
2023/05/10 05:03:02;;;;;;;15.75;11.43;;;;;;;;;;6241606;23;20366;-77
2023/05/10 05:05:28;;;;;;;16.85;11.80;;;;;;;;;;6243705;23;20392;-76
2023/05/10 05:07:54;;;;;;;15.67;11.33;;;;;;;;;;6217743;23;20365;-76
2023/05/10 05:10:20;;;;;;;12.35;9.48;;;;;;;;;;6242625;23;20373;-76
2023/05/10 05:12:46;;;;;;;12.27;9.23;;;;;;;;;;6217942;23;20377;-75
2023/05/10 05:15:12;;;;;;;11.15;9.02;;;;;;;;;;6242917;23;20869;-76
2023/05/10 05:17:38;;;;;;;11.45;8.60;;;;;;;;;;6241229;23;20354;-75
2023/05/10 05:20:05;;;;;;;12.18;8.32;;;;;;;;;;6243105;23;20359;-77
2023/05/10 05:22:31;;;;;;;11.23;8.13;;;;;;;;;;6241902;23;20384;-76
2023/05/10 05:25:02;;;;;;;9.40;6.88;;;;;;;;;;6242551;23;20412;-76
2023/05/10 05:27:28;;;;;;;8.13;6.40;;;;;;;;;;6218175;23;20938;-77
2023/05/10 05:29:54;;;;;;;8.80;6.20;;;;;;;;;;6242597;23;20373;-76
2023/05/10 05:32:20;;;;;;;7.18;5.25;;;;;;;;;;6215110;23;20362;-77
2023/05/10 05:34:47;;;;;;;7.85;5.60;;;;;;;;;;6242049;23;20361;-76
2023/05/10 05:37:16;;;;;;;7.97;5.30;;;;;;;;;;6218675;23;20373;-77
2023/05/10 05:39:43;;;;;;;6.88;5.10;;;;;;;;;;6243787;23;20744;-77
2023/05/10 05:42:09;;;;;;;6.38;5.03;;;;;;;;;;6219455;23;20457;-77
2023/05/10 05:44:36;;;;;;;7.72;5.90;;;;;;;;;;6244832;23;20358;-76
2023/05/10 05:47:02;;;;;;;7.28;5.35;;;;;;;;;;6242431;23;20468;-77
2023/05/10 05:49:28;;;;;;;9.25;6.15;;;;;;;;;;6217849;23;20362;-77
2023/05/10 05:51:54;;;;;;;6.43;5.00;;;;;;;;;;6242795;23;20901;-77
2023/05/10 05:54:20;;;;;;;6.33;4.70;;;;;;;;;;6242721;23;20407;-77
2023/05/10 05:56:46;;;;;;;5.50;3.92;;;;;;;;;;6243087;23;20370;-76
2023/05/10 05:59:12;;;;;;;4.18;2.90;;;;;;;;;;6219271;23;20692;-76
2023/05/10 06:01:38;;;;;;;3.80;2.40;;;;;;;;;;6244917;23;20373;-76
2023/05/10 06:04:04;;;;;;;3.33;2.23;;;;;;;;;;6219712;23;20390;-77
2023/05/10 06:06:32;;;;;;;4.00;2.28;;;;;;;;;;6218495;23;20386;-76
2023/05/10 06:08:58;;;;;;;2.78;1.88;;;;;;;;;;6191059;23;20382;-77
2023/05/10 06:11:25;;;;;;;2.40;1.63;;;;;;;;;;6240847;23;20421;-78
2023/05/10 06:13:51;;;;;;;2.28;1.60;;;;;;;;;;6217681;23;20390;-78
2023/05/10 06:16:17;;;;;;;2.42;1.67;;;;;;;;;;6217493;23;20938;-77
2023/05/10 06:18:43;;;;;;;2.03;1.50;;;;;;;;;;6217666;23;20366;-77
2023/05/10 06:21:09;;;;;;;2.10;1.52;;;;;;;;;;6216483;23;20428;-76
2023/05/10 06:23:35;;;;;;;1.67;1.30;;;;;;;;;;6215210;23;20373;-77
2023/05/10 06:26:02;;;;;;;3.35;1.60;;;;;;;;;;6215330;23;20386;-76
2023/05/10 06:28:28;;;;;;;2.30;1.50;;;;;;;;;;6240295;23;20416;-77
2023/05/10 06:30:54;;;;;;;2.30;1.55;;;;;;;;;;6214550;23;20373;-76
2023/05/10 06:33:20;;;;;;;2.30;1.70;;;;;;;;;;6187606;23;20368;-76
2023/05/10 06:35:46;;;;;;;2.53;1.60;;;;;;;;;;6213536;23;20365;-77
2023/05/10 06:38:12;;;;;;;2.00;1.45;;;;;;;;;;6189913;23;20366;-77
2023/05/10 06:40:41;;;;;;;1.73;1.30;;;;;;;;;;6192133;23;20370;-78
2023/05/10 06:43:07;;;;;;;2.60;1.50;;;;;;;;;;6214533;23;20401;-77
2023/05/10 06:45:34;;;;;;;3.03;1.70;;;;;;;;;;6217510;23;20424;-77
2023/05/10 06:48:00;;;;;;;2.50;1.88;;;;;;;;;;6215989;23;20364;-77
2023/05/10 06:50:27;;;;;;;3.30;1.80;;;;;;;;;;6213946;23;20405;-78
2023/05/10 06:52:53;;;;;;;3.22;1.90;;;;;;;;;;6214649;23;20362;-78
2023/05/10 06:55:19;;;;;;;3.38;2.00;;;;;;;;;;6191583;23;20369;-77
2023/05/10 06:57:45;;;;;;;3.60;2.10;;;;;;;;;;6215987;23;20366;-78
2023/05/10 07:00:11;;;;;;;3.00;2.15;;;;;;;;;;6216727;23;20368;-77
2023/05/10 07:02:37;;;;;;;3.35;2.30;;;;;;;;;;6190760;23;20377;-79
2023/05/10 07:05:04;;;;;;;3.43;2.50;;;;;;;;;;6216772;23;20361;-79
2023/05/10 07:07:30;;;;;;;3.15;2.50;;;;;;;;;;6215792;23;20449;-79
2023/05/10 07:09:57;;;;;;;3.63;2.40;;;;;;;;;;6241326;23;20386;-79
2023/05/10 07:12:23;;;;;;;3.20;2.08;;;;;;;;;;6216615;23;20437;-79
2023/05/10 07:14:49;;;;;;;2.97;2.28;;;;;;;;;;6215400;23;20380;-79
2023/05/10 07:17:15;;;;;;;3.90;2.60;;;;;;;;;;6218066;23;20404;-79
2023/05/10 07:19:41;;;;;;;3.40;2.20;;;;;;;;;;6217596;23;20727;-79
2023/05/10 07:22:08;;;;;;;2.67;1.83;;;;;;;;;;6191114;23;20366;-80
2023/05/10 07:24:34;;;;;;;3.07;1.97;;;;;;;;;;6242693;23;20369;-79
2023/05/10 07:27:00;;;;;;;3.15;2.00;;;;;;;;;;6240503;23;20901;-80
2023/05/10 07:29:26;;;;;;;3.63;2.10;;;;;;;;;;6215396;23;20428;-79
2023/05/10 07:31:53;;;;;;;3.20;2.20;;;;;;;;;;6217362;23;20923;-80
2023/05/10 07:34:19;;;;;;;3.60;2.45;;;;;;;;;;6217286;23;20368;-81
2023/05/10 07:36:45;;;;;;;4.15;2.30;;;;;;;;;;6242721;23;20366;-81
2023/05/10 07:39:14;;;;;;;4.13;2.75;;;;;;;;;;6191831;23;20365;-81
2023/05/10 07:41:40;;;;;;;3.88;2.58;;;;;;;;;;6189579;23;20440;-81
2023/05/10 07:44:07;;;;;;;3.75;2.38;;;;;;;;;;6239481;23;20811;-81
2023/05/10 07:46:33;;;;;;;3.78;2.50;;;;;;;;;;6215716;23;20712;-80
2023/05/10 07:48:59;;;;;;;3.78;2.63;;;;;;;;;;6241858;23;20362;-80
2023/05/10 07:51:25;;;;;;;3.50;2.60;;;;;;;;;;6191077;23;20417;-77
2023/05/10 07:53:51;;;;;;;3.73;2.60;;;;;;;;;;6216152;23;20366;-81
2023/05/10 07:56:32;;;;;;;4.57;2.97;;;12.50;99.90;;;;;;6242332;23;20370;-81
2023/05/10 07:59:03;;;;;;;4.30;3.10;;;12.80;99.90;;;;;;6218315;23;20459;-81
2023/05/10 08:01:34;;;;;;;4.68;3.50;;;12.50;99.90;;;;;;6219022;23;20365;-81
2023/05/10 08:04:01;;;;;;;6.28;3.92;;;;;;;;;;6243876;23;20366;-81
2023/05/10 08:06:29;;;;;;;5.83;3.97;;;;;;;;;;6242748;23;20851;-81
2023/05/10 08:08:58;;;;;;;5.00;3.70;;;;;;;;;;6243217;23;20401;-80
2023/05/10 08:11:25;;;;;;;5.00;3.50;;;;;;;;;;6243221;23;20836;-81
2023/05/10 08:13:51;;;;;;;5.25;3.60;;;;;;;;;;6192556;23;20362;-80
2023/05/10 08:16:17;;;;;;;4.97;3.90;;;;;;;;;;6217489;23;20453;-80
2023/05/10 08:18:48;;;;;;;4.60;3.60;;;;;;;;;;6243794;23;20400;-81
2023/05/10 08:21:15;;;;;;;5.18;3.72;;;;;;;;;;6217845;23;20370;-81
2023/05/10 08:23:43;;;;;;;4.90;3.80;;;;;;;;;;6242679;23;20366;-81
2023/05/10 08:26:11;;;;;;;5.57;3.72;;;;;;;;;;6243927;23;20393;-80
2023/05/10 08:28:38;;;;;;;10.32;4.15;;;;;;;;;;6241575;23;20370;-81
2023/05/10 08:31:04;;;;;;;7.68;4.65;;;;;;;;;;6217793;23;20366;-80
2023/05/10 08:33:30;;;;;;;7.03;4.95;;;;;;;;;;6217576;23;20405;-80
2023/05/10 08:35:56;;;;;;;8.25;5.32;;;;;;;;;;6216064;23;20369;-81
2023/05/10 08:38:22;;;;;;;10.15;5.80;;;;;;;;;;6218292;23;20369;-80
2023/05/10 08:40:50;;;;;;;7.90;5.63;;;;;;;;;;6215884;23;20365;-80
2023/05/10 08:43:17;;;;;;;10.30;6.20;;;;;;;;;;6216386;23;20402;-80
2023/05/10 08:45:47;;;;;;;9.20;5.97;;;13.00;99.90;;;;;;6191589;23;20434;-79
2023/05/10 08:48:14;;;;;;;11.32;6.38;;;;;;;;;;6217000;23;20369;-80
2023/05/10 08:50:41;;;;;;;8.77;6.28;;;12.80;99.90;;;;;;6215573;23;20401;-79
2023/05/10 08:53:11;;;;;;;8.63;5.57;;;;;;;;;;6216761;23;20365;-81
2023/05/10 08:55:38;;;;;;;9.87;6.30;;;;;;;;;;6217110;23;20385;-80
2023/05/10 08:58:05;;;;;;;9.60;5.95;;;;;;;;;;6243143;23;20394;-81
2023/05/10 09:00:31;;;;;;;9.02;6.15;;;;;;;;;;6215499;23;20372;-80
2023/05/10 09:03:01;;;;;;;7.43;5.72;;;;;;;;;;6192097;23;20778;-81
2023/05/10 09:05:27;;;;;;;8.73;5.67;;;;;;;;;;6215669;23;20442;-81
2023/05/10 09:07:54;;;;;;;9.40;5.80;;;;;;;;;;6241976;23;20895;-81
2023/05/10 09:10:20;;;;;;;9.27;5.93;;;;;;;;;;6191906;23;20362;-81
2023/05/10 09:12:47;;;;;;;9.95;6.70;;;;;;;;;;6243422;23;20397;-81
2023/05/10 09:15:15;;;;;;;10.32;7.25;;;13.40;99.90;;;;;;6242341;23;20380;-81
2023/05/10 09:17:41;;;;;;;10.73;6.97;;;;;;;;;;6218204;23;20361;-82
2023/05/10 09:20:07;;;;;;;13.32;7.90;;;;;;;;;;6217012;23;20358;-81
2023/05/10 09:22:34;;;;;;;11.10;7.60;;;13.20;99.90;;;;;;6240016;23;20366;-80
2023/05/10 09:25:04;;;;;;;11.68;8.23;;;;;;;;;;6217492;23;20362;-77
2023/05/10 09:27:30;;;;;;;12.55;8.07;;;;;;;;;;6241305;23;20894;-77
2023/05/10 09:29:57;;;;;;;11.05;8.10;;;;;;;;;;6216591;23;20370;-80
2023/05/10 09:32:40;;;;;;;11.27;7.88;;;13.70;99.90;;;;;;6217043;23;20404;-80
2023/05/10 09:35:07;;;;;;;11.43;7.88;;;14.00;99.90;;;;;;6241534;23;20453;-78
2023/05/10 09:37:33;;;;;;;9.98;7.88;;;;;;;;;;6241071;23;20755;-79
2023/05/10 09:39:59;;;;;;;8.93;6.60;;;;;;;;;;6216333;23;20428;-79
2023/05/10 09:42:25;;;;;;;9.07;6.45;;;;;;;;;;6241172;23;20408;-80
2023/05/10 09:44:52;;;;;;;9.32;6.70;;;;;;;;;;6214809;23;20377;-79
2023/05/10 09:47:21;;;;;;;9.65;6.60;;;;;;;;;;6241527;23;20867;-79
2023/05/10 09:49:51;;;;;;;8.60;6.35;;;;;;;;;;6190274;23;20389;-78
2023/05/10 09:52:17;;;;;;;9.50;6.60;;;;;;;;;;6216357;23;20412;-80
2023/05/10 09:54:53;;;;;;;9.57;6.22;;;14.40;99.90;;;;;;6240912;23;20363;-78
2023/05/10 09:57:21;;;;;;;10.50;6.80;;;;;;;;;;6242374;23;20913;-77
2023/05/10 09:59:47;;;;;;;11.52;8.43;;;;;;;;;;6241076;23;20453;-78
2023/05/10 10:02:13;;;;;;;15.77;11.85;;;;;;;;;;6242017;23;20854;-77
2023/05/10 10:04:40;;;;;;;18.73;13.23;;;;;;;;;;6242726;23;20449;-77
2023/05/10 10:07:06;;;;;;;15.38;10.70;;;;;;;;;;6218364;23;20388;-77
2023/05/10 10:09:33;;;;;;;16.80;12.27;;;;;;;;;;6216488;23;20392;-78
2023/05/10 10:12:04;;;;;;;10.05;7.13;;;;;;;;;;6244397;23;20358;-78
2023/05/10 10:14:30;;;;;;;9.43;6.80;;;;;;;;;;6239570;23;20457;-78
2023/05/10 10:16:56;;;;;;;9.68;6.78;;;;;;;;;;6216856;23;20835;-77
2023/05/10 10:19:22;;;;;;;9.60;6.30;;;;;;;;;;6216864;23;20373;-78
2023/05/10 10:21:50;;;;;;;10.20;6.85;;;;;;;;;;6241273;23;20377;-78
2023/05/10 10:24:16;;;;;;;9.57;6.90;;;;;;;;;;6216846;23;20370;-79
2023/05/10 10:26:43;;;;;;;11.50;7.07;;;14.50;99.90;;;;;;6246298;23;20413;-80
2023/05/10 10:29:18;;;;;;;10.77;7.40;;;;;;;;;;6243562;23;20362;-79
2023/05/10 10:31:50;;;;;;;10.33;7.13;;;;;;;;;;6243199;23;20365;-79
2023/05/10 10:34:30;;;;;;;9.52;6.50;;;;;;;;;;6242862;23;20366;-80
2023/05/10 10:36:57;;;;;;;8.43;6.55;;;14.70;99.90;;;;;;6240886;23;20879;-78
2023/05/10 10:39:26;;;;;;;9.25;6.25;;;14.60;99.90;;;;;;6243958;23;20362;-79
2023/05/10 10:41:53;;;;;;;9.07;6.15;;;;;;;;;;6240591;23;20828;-76
2023/05/10 10:44:25;;;;;;;8.27;6.03;;;;;;;;;;6216559;23;20369;-78
2023/05/10 10:47:30;;;;;;;7.70;5.80;;;;;;;;;;6242728;23;20396;-79
2023/05/10 10:50:05;;;;;;;8.35;5.75;;;15.00;99.90;;;;;;6242940;23;20365;-79
2023/05/10 10:52:35;;;;;;;8.23;5.50;;;;;;;;;;6244100;23;20433;-80
2023/05/10 10:55:10;;;;;;;7.15;5.40;;;;;;;;;;6243754;23;20362;-80
2023/05/10 10:57:49;;;;;;;9.60;5.63;;;;;;;;;;6243032;23;20370;-80
2023/05/10 11:00:28;;;;;;;8.15;6.10;;;;;;;;;;6244096;23;20374;-78
2023/05/10 11:03:06;;;;;;;7.47;5.60;;;;;;;;;;6245205;23;20692;-80
2023/05/10 11:05:35;;;;;;;8.27;6.20;;;;;;;;;;6243204;23;20366;-80
2023/05/10 11:08:07;;;;;;;9.32;6.25;;;;;;;;;;6239982;23;20366;-80
2023/05/10 11:10:33;;;;;;;8.50;5.63;;;;;;;;;;6214503;23;20844;-80
2023/05/10 11:13:06;;;;;;;9.02;6.22;;;;;;;;;;6216329;23;20365;-79
2023/05/10 11:15:33;;;;;;;9.40;7.07;;;15.30;99.90;;;;;;6241887;23;20386;-79
2023/05/10 11:17:59;;;;;;;9.67;7.10;;;;;;;;;;6239851;23;20415;-81
2023/05/10 11:20:33;;;;;;;10.55;6.70;;;;;;;;;;6216568;23;20405;-80
2023/05/10 11:23:12;;;;;;;12.13;7.80;;;;;;;;;;6240521;23;20449;-79
2023/05/10 11:25:44;;;;;;;9.93;7.13;;;;;;;;;;6239386;23;20397;-78
2023/05/10 11:28:11;;;;;;;11.18;7.43;;;;;;;;;;6213544;23;20362;-78
2023/05/10 11:30:41;;;;;;;10.57;7.68;;;;;;;;;;6239825;23;20371;-78
2023/05/10 11:33:07;;;;;;;10.73;7.75;;;15.00;99.90;;;;;;6241198;23;20370;-77
2023/05/10 11:35:40;;;;;;;11.93;7.55;;;15.10;99.90;;;;;;6242772;23;20365;-80
2023/05/10 11:38:10;;;;;;;10.63;7.90;;;15.30;99.90;;;;;;6242543;23;20418;-80
2023/05/10 11:40:37;;;;;;;11.32;7.90;;;;;;;;;;6238081;23;20369;-78
2023/05/10 11:43:03;;;;;;;10.85;7.38;;;15.30;99.90;;;;;;6216222;23;20368;-78
2023/05/10 11:45:31;;;;;;;11.23;7.78;;;;;;;;;;6240814;23;20787;-78
2023/05/10 11:47:57;;;;;;;10.88;7.75;;;15.20;99.90;;;;;;6241340;23;20369;-78
2023/05/10 11:50:24;;;;;;;11.55;7.63;;;;;;;;;;6216997;23;20436;-79
2023/05/10 11:52:53;;;;;;;11.90;7.65;;;;;;;;;;6240830;23;20432;-79
2023/05/10 11:55:19;;;;;;;11.63;7.45;;;;;;;;;;6240454;23;20439;-79
2023/05/10 11:57:46;;;;;;;11.75;7.60;;;;;;;;;;6189204;23;20722;-79
2023/05/10 12:00:12;;;;;;;10.00;7.03;;;;;;;;;;6241580;23;20365;-79
2023/05/10 12:02:39;;;;;;;9.17;6.27;;;;;;;;;;6240901;23;20831;-77
2023/05/10 12:05:05;;;;;;;7.68;6.00;;;;;;;;;;6242261;23;20369;-79
2023/05/10 12:07:31;;;;;;;9.73;6.13;;;;;;;;;;6190746;23;20392;-78
2023/05/10 12:10:14;;;;;;;10.18;6.22;;;15.30;99.90;;;;;;6241898;23;20389;-78
2023/05/10 12:12:44;;;;;;;8.80;6.00;;;15.20;99.90;;;;;;6239853;23;20836;-78
2023/05/10 12:15:18;;;;;;;10.10;6.23;;;;;;;;;;6240665;23;20369;-78
2023/05/10 12:17:45;;;;;;;9.20;6.03;;;;;;;;;;6241226;23;20467;-79
2023/05/10 12:20:24;;;;;;;9.48;6.57;;;;;;;;;;6213983;23;20644;-78
2023/05/10 12:22:52;;;;;;;11.18;6.78;;;15.00;99.90;;;;;;6240197;23;20431;-78
2023/05/10 12:25:19;;;;;;;9.52;6.75;;;;;;;;;;6215452;23;20377;-77
2023/05/10 12:27:48;;;;;;;11.07;7.30;;;;;;;;;;6240566;23;20433;-78
2023/05/10 12:30:20;;;;;;;11.25;7.75;;;;;;;;;;6241235;23;20394;-78
2023/05/10 12:32:46;;;;;;;11.10;7.53;;;;;;;;;;6241107;23;20373;-78
2023/05/10 12:35:12;;;;;;;10.38;6.90;;;;;;;;;;6241071;23;20444;-78
2023/05/10 12:37:41;;;;;;;9.27;7.03;;;;;;;;;;6241710;23;20374;-78
2023/05/10 12:40:08;;;;;;;9.98;7.13;;;15.30;99.90;;;;;;6242446;23;20374;-78
2023/05/10 12:42:38;;;;;;;8.63;6.07;;;;;;;;;;6241798;23;20370;-79
2023/05/10 12:45:05;;;;;;;9.27;6.78;;;;;;;;;;6241120;23;20378;-79
2023/05/10 12:47:31;;;;;;;9.43;6.80;;;;;;;;;;6242536;23;20390;-78
2023/05/10 12:49:57;;;;;;;10.35;7.15;;;;;;;;;;6240235;23;20684;-78
2023/05/10 12:52:24;;;;;;;11.27;7.55;;;;;;;;;;6241259;23;20365;-78
2023/05/10 12:54:50;;;;;;;11.10;7.50;;;;;;;;;;6215537;23;20393;-79
2023/05/10 12:57:16;;;;;;;12.13;7.95;;;;;;;;;;6240319;23;20469;-78
2023/05/10 12:59:42;;;;;;;11.55;7.80;;;;;;;;;;6239007;23;20370;-78
2023/05/10 13:02:09;;;;;;;10.30;8.02;;;;;;;;;;6216222;23;20366;-78
2023/05/10 13:04:39;;;;;;;11.27;8.20;;;;;;;;;;6239889;23;20366;-78
2023/05/10 13:07:05;;;;;;;12.52;8.10;;;;;;;;;;6215634;23;20385;-77
2023/05/10 13:09:31;;;;;;;10.15;7.40;;;;;;;;;;6239519;23;20444;-79
2023/05/10 13:11:57;;;;;;;9.93;7.13;;;;;;;;;;6215523;23;20373;-78
2023/05/10 13:14:23;;;;;;;9.80;7.10;;;;;;;;;;6214167;23;20362;-77
2023/05/10 13:16:49;;;;;;;9.77;7.17;;;;;;;;;;6215176;23;20377;-77
2023/05/10 13:19:16;;;;;;;10.55;7.45;;;;;;;;;;6241372;23;20449;-78
2023/05/10 13:21:42;;;;;;;11.75;7.95;;;;;;;;;;6238970;23;20374;-78
2023/05/10 13:24:08;;;;;;;10.68;7.60;;;;;;;;;;6215423;23;20388;-77
2023/05/10 13:26:34;;;;;;;13.13;7.70;;;;;;;;;;6213581;23;20386;-77
2023/05/10 13:29:00;;;;;;;10.63;7.32;;;;;;;;;;6215748;23;20364;-78
2023/05/10 13:31:26;;;;;;;10.63;7.90;;;;;;;;;;6216776;23;20404;-77
2023/05/10 13:33:52;;;;;;;9.88;7.28;;;;;;;;;;6213025;23;20393;-77
2023/05/10 13:36:18;;;;;;;11.83;7.13;;;;;;;;;;6239146;23;20433;-77
2023/05/10 13:38:44;;;;;;;10.30;6.97;;;16.10;99.90;;;;;;6217431;23;20373;-77
2023/05/10 13:41:10;;;;;;;9.33;7.10;;;;;;;;;;6240865;23;20366;-77
2023/05/10 13:43:36;;;;;;;9.07;6.82;;;;;;;;;;6213362;23;20404;-78
2023/05/10 13:46:03;;;;;;;9.18;6.07;;;;;;;;;;6241476;23;20476;-79
2023/05/10 13:48:29;;;;;;;8.07;6.25;;;;;;;;;;6240351;23;20881;-78
2023/05/10 13:50:55;;;;;;;10.40;6.80;;;;;;;;;;6240058;23;20362;-79
2023/05/10 13:53:21;;;;;;;9.88;6.25;;;;;;;;;;6214934;23;20362;-78
2023/05/10 13:55:47;;;;;;;8.50;5.97;;;;;;;;;;6212063;23;20416;-78
2023/05/10 13:58:13;;;;;;;7.10;5.72;;;;;;;;;;6216523;23;20910;-79
2023/05/10 14:00:40;;;;;;;9.80;6.00;;;;;;;;;;6215188;23;20788;-79
2023/05/10 14:03:06;;;;;;;8.75;6.40;;;;;;;;;;6238755;23;20366;-78
2023/05/10 14:05:34;;;;;;;7.27;5.27;;;;;;;;;;6240074;23;20400;-78
2023/05/10 14:08:00;;;;;;;7.45;5.15;;;;;;;;;;6190893;23;20935;-77
2023/05/10 14:10:26;;;;;;;8.07;5.50;;;;;;;;;;6242627;23;20382;-78
2023/05/10 14:12:52;;;;;;;8.38;5.30;;;;;;;;;;6239709;23;20374;-77
2023/05/10 14:15:18;;;;;;;7.30;4.63;;;;;;;;;;6241259;23;20404;-77